McGrath, AK

4:33 AM AKDT on August 30, 2015 (GMT -0800)
Tatalina | | Change Station
CLOSE
Current Station
Airport
Location: Tatalina,
Elevation: 965 ft
Nearby Weather Stations

Elev 965 ft 62.89 °N, 155.98 °W | Updated 38 minutes ago

Mostly Cloudy
Mostly Cloudy
36 °F
Feels Like 36 °F
N
1
Wind Variable Wind from SW

Today
High -- | Low -- °F
--% Chance of Precip.
Yesterday
High -- | Low -- °F
Precip. -- in
7:04 AM 9:42 PM
Full, 99% visible
Pressure 29.59 in
Visibility 10.0 miles
Clouds Mostly Cloudy 1700 ft
Mostly Cloudy 5500 ft
Mostly Cloudy 10000 ft
Dew Point 33 °F
Humidity 89%
Rainfall 0.00 in
Snow Depth Not available.
UV 0 out of 12
Pollen Not available.
Air Quality Not available.
Flu Activity Not available.
METAR PATL 301155Z AUTO 22001KT 10SM BKN017 BKN055 BKN100 02/01 A2956 RMK AO2 SLP019 70005 T00230007 10045 20021 52005 $
Pressure 29.59 in
Visibility 10.0 miles
Clouds Mostly Cloudy 1700 ft
Mostly Cloudy 5500 ft
Mostly Cloudy 10000 ft
Dew Point 33 °F
Humidity 89%
Rainfall 0.00 in
Snow Depth Not available.
UV 0 out of 12
Pollen Not available.
Air Quality Not available.
Flu Activity Not available.
METAR PATL 301155Z AUTO 22001KT 10SM BKN017 BKN055 BKN100 02/01 A2956 RMK AO2 SLP019 70005 T00230007 10045 20021 52005 $

10-Day Weather Forecast

×

Almanac

Astronomy

Aug. 30, 2015 Rise Set
Actual Time
Civil Twilight
Nautical Twilight
Astronomical Twilight
Moon
Length of Visible Light
Length of Day
Tomorrow will be .
, % of the Moon is Illuminated

Today's Extremes

State Highs State Lows

Community

WunderPhotos

Upload Photos

1,850,940 photos uploaded!

WunderBlogs® & News

Nearby

Air Quality

  Air Quality AQ Index Pollutant
Not available.

Snow Depth

Station Depth Elevation

Earthquake Activity

City Distance Mag. Time & Date
Minimum magnitude displayed is 2.5.

Coastal Water Temperatures

Place Temperature

Stations

Nearby Weather Stations

Station Location Temp. Windchill Dew Point Humidity Wind Precip. Elev Updated Type